Latest Weather Observations for Williamson

IDQ60801

Issued at 9:02 am EST Wednesday 22 February 2017 (issued every 30 minutes, with the page automatically refreshed every 10 minutes)

About weather observations | Map of weather stations | Latest weather observations for QLD | Other Formats
Station Details ID: 033195 Name: WILLIAMSON Lat: -22.47 Lon: 150.18 Height: 27.6 m
Data from the previous 72 hours. | See also: Recent months at Williamson
Date/Time
EST
Temp
°C
App
Temp
°C
Dew
Point
°C
Rel
Hum
%
Delta-T
°C
Wind Press
QNH
hPa
Press
MSL
hPa
Rain since
9am
mm
Dir  Spd
km/h
Gust
km/h
Spd
kts
Gust
kts
22/09:00am 27.8 30.2 21.6 69 4.1 SE 11 11 6 6 1015.9 1015.7 0.0
22/08:30am 25.6 28.1 21.1 76 3.0 SE 9 13 5 7 1015.7 1015.5 0.0
22/08:00am 26.4 28.7 21.4 74 3.3 SE 11 17 6 9 1016.0 1015.8 0.0
22/07:30am 25.8 28.2 21.5 77 2.9 SSE 11 17 6 9 1015.7 1015.5 0.0
22/07:00am 25.5 28.6 21.4 78 2.7 SSE 7 9 4 5 1015.5 1015.3 0.0
22/06:30am 25.5 28.0 21.0 76 3.0 ESE 9 13 5 7 1015.3 1015.1 0.0
22/06:00am 25.8 27.0 20.6 73 3.4 ESE 15 22 8 12 1015.0 1014.8 0.0
22/05:30am 25.6 28.8 21.7 79 2.6 ENE 7 11 4 6 1014.7 1014.5 0.0
22/05:00am 25.5 30.1 21.8 80 2.5 CALM 0 0 0 0 1014.4 1014.2 0.0
22/04:30am 25.7 28.8 21.1 76 3.0 ESE 6 9 3 5 1014.3 1014.1 0.0
22/04:00am 25.3 28.5 21.6 80 2.5 ESE 7 13 4 7 1013.8 1013.6 0.0
22/03:30am 24.9 29.2 21.2 80 2.4 CALM 0 7 0 4 1013.7 1013.5 0.0
22/03:00am 25.0 26.7 20.9 78 2.7 ENE 13 20 7 11 1013.7 1013.5 0.0
22/02:30am 26.5 29.5 21.3 73 3.5 ESE 7 13 4 7 1013.7 1013.5 0.0
22/02:00am 26.8 30.1 21.8 74 3.3 ESE 7 13 4 7 1013.8 1013.6 0.0
22/01:30am 26.9 31.2 21.9 74 3.4 NE 2 9 1 5 1014.0 1013.8 0.0
22/01:00am 26.9 30.3 21.6 72 3.5 E 6 9 3 5 1014.3 1014.1 0.0
22/12:30am 26.7 29.6 21.7 74 3.3 ENE 9 13 5 7 1014.2 1014.0 0.0
22/12:00am 26.7 30.0 21.9 75 3.2 ENE 7 13 4 7 1014.5 1014.3 0.0
 
Date/Time
EST
Temp
°C
App
Temp
°C
Dew
Point
°C
Rel
Hum
%
Delta-T
°C
Wind Press
QNH
hPa
Press
MSL
hPa
Rain since
9am
mm
Dir  Spd
km/h
Gust
km/h
Spd
kts
Gust
kts
21/11:30pm 26.8 29.9 22.2 76 3.1 E 9 17 5 9 1014.4 1014.2 0.0
21/11:00pm 27.0 30.1 22.2 75 3.2 E 9 17 5 9 1014.5 1014.3 0.0
21/10:30pm 27.0 30.6 22.4 76 3.1 E 7 15 4 8 1014.7 1014.5 0.0
21/10:00pm 26.8 31.1 22.6 78 2.8 E 4 9 2 5 1014.7 1014.5 0.0
21/09:30pm 27.2 30.7 22.8 77 3.0 ENE 9 15 5 8 1014.5 1014.3 0.0
21/09:00pm 27.3 30.8 22.9 77 3.0 E 9 13 5 7 1014.2 1014.0 0.0
21/08:30pm 27.3 30.6 22.5 75 3.2 E 9 17 5 9 1014.1 1013.9 0.0
21/08:00pm 27.5 30.7 22.4 73 3.4 E 9 15 5 8 1014.0 1013.8 0.0
21/07:30pm 27.8 30.6 22.3 72 3.7 E 11 20 6 11 1013.9 1013.7 0.0
21/07:00pm 28.1 31.2 21.4 67 4.5 E 7 19 4 10 1013.4 1013.2 0.0
21/06:30pm 28.5 31.1 22.0 68 4.4 E 11 20 6 11 1013.0 1012.8 0.0
21/06:00pm 29.0 31.3 22.0 66 4.7 E 13 24 7 13 1012.7 1012.5 0.0
21/05:30pm 29.5 31.6 22.5 66 4.8 ENE 15 26 8 14 1012.3 1012.1 0.0
21/05:00pm 30.0 31.8 21.9 62 5.5 ENE 15 26 8 14 1012.1 1011.9 0.0
21/04:30pm 30.5 31.6 21.9 60 5.8 ENE 19 30 10 16 1011.7 1011.5 0.0
21/04:00pm 30.9 32.0 21.9 58 6.1 ENE 19 32 10 17 1011.7 1011.5 0.0
21/03:30pm 32.5 33.7 21.4 52 7.5 ENE 17 28 9 15 1011.5 1011.3 0.0
21/03:00pm 31.8 33.8 20.7 51 7.4 NE 11 22 6 12 1011.6 1011.4 0.0
21/02:30pm 31.6 32.6 20.2 50 7.6 ENE 15 30 8 16 1011.7 1011.5 0.0
21/02:00pm 33.3 34.0 19.7 44 9.0 NE 15 26 8 14 1011.9 1011.7 0.0
21/01:30pm 32.2 33.5 20.8 51 7.6 ENE 15 30 8 16 1012.3 1012.1 0.0
21/01:00pm 34.0 34.2 19.3 42 9.7 ENE 17 30 9 16 1012.4 1012.2 0.0
21/12:30pm 33.2 33.2 18.9 42 9.4 NE 17 24 9 13 1012.6 1012.4 0.0
21/12:00pm 33.3 35.5 19.7 44 9.0 E 7 13 4 7 1013.1 1012.9 0.0
21/11:30am 32.0 34.0 19.9 48 8.0 N 9 19 5 10 1013.4 1013.2 0.0
21/11:00am 32.1 33.6 19.0 45 8.6 SE 9 20 5 11 1013.7 1013.5 0.0
21/10:30am 32.8 34.5 19.3 45 8.9 SSE 9 17 5 9 1014.0 1013.8 0.0
21/10:00am 31.2 33.5 19.9 51 7.5 W 7 13 4 7 1014.2 1014.0 0.0
21/09:30am 30.3 31.9 20.0 54 6.8 SSE 11 19 6 10 1014.5 1014.3 0.0
21/09:00am 29.7 31.7 20.0 56 6.4 WSW 9 13 5 7 1014.4 1014.2 0.0
21/08:30am 29.9 32.6 20.7 57 6.1 SSW 7 13 4 7 1014.2 1014.0 0.0
21/08:00am 29.0 31.9 20.7 61 5.5 SSE 6 11 3 6 1014.1 1013.9 0.0
21/07:30am 27.3 30.1 20.9 68 4.2 SSE 7 11 4 6 1014.1 1013.9 0.0
21/07:00am 25.0 28.4 20.9 78 2.7 S 4 9 2 5 1013.8 1013.6 0.0
21/06:30am 21.6 25.3 19.9 90 1.1 CALM 0 0 0 0 1013.5 1013.3 0.0
21/06:00am 20.8 24.3 19.5 92 0.8 CALM 0 0 0 0 1013.2 1013.0 0.0
21/05:30am 21.1 24.7 19.7 92 0.9 CALM 0 0 0 0 1013.0 1012.8 0.0
21/05:00am 21.1 24.7 19.7 92 0.9 CALM 0 0 0 0 1012.7 1012.5 0.0
21/04:30am 21.0 24.6 19.7 92 0.8 CALM 0 0 0 0 1012.5 1012.3 0.0
21/04:00am 21.2 24.8 19.8 92 0.9 CALM 0 0 0 0 1012.2 1012.0 0.0
21/03:30am 21.2 24.8 19.7 91 1.0 CALM 0 0 0 0 1012.0 1011.8 0.0
21/03:00am 21.5 24.6 19.6 89 1.2 SE 2 6 1 3 1011.6 1011.4 0.0
21/02:30am 22.1 25.7 19.8 87 1.5 CALM 0 0 0 0 1011.4 1011.2 0.0
21/02:00am 22.7 25.2 20.2 86 1.6 SSE 7 9 4 5 1011.3 1011.1 0.0
21/01:30am 22.7 26.5 20.2 86 1.6 CALM 0 0 0 0 1011.5 1011.3 0.0
21/01:00am 22.9 26.7 20.2 85 1.7 CALM 0 0 0 0 1011.6 1011.4 0.0
21/12:30am 23.2 27.0 20.2 83 1.9 CALM 0 0 0 0 1011.8 1011.6 0.0
21/12:00am 23.7 27.5 20.2 81 2.3 CALM 0 0 0 0 1012.1 1011.9 0.0
 
Date/Time
EST
Temp
°C
App
Temp
°C
Dew
Point
°C
Rel
Hum
%
Delta-T
°C
Wind Press
QNH
hPa
Press
MSL
hPa
Rain since
9am
mm
Dir  Spd
km/h
Gust
km/h
Spd
kts
Gust
kts
20/11:30pm 24.3 28.3 20.6 80 2.4 CALM 0 0 0 0 1012.2 1012.0 0.0
20/11:00pm 24.6 28.7 20.7 79 2.6 CALM 0 0 0 0 1012.0 1011.8 0.0
20/10:30pm 24.7 28.8 20.8 79 2.6 CALM 0 0 0 0 1012.0 1011.8 0.0
20/10:00pm 25.1 29.2 20.8 77 2.8 CALM 0 0 0 0 1012.2 1012.0 0.0
20/09:30pm 25.1 29.1 20.6 76 2.9 CALM 0 0 0 0 1012.1 1011.9 0.0
20/09:00pm 25.4 28.9 20.4 74 3.3 ENE 2 7 1 4 1011.8 1011.6 0.0
20/08:30pm 26.1 30.0 20.4 71 3.7 CALM 0 0 0 0 1011.8 1011.6 0.0
20/08:00pm 26.8 30.8 20.6 69 4.1 CALM 0 0 0 0 1011.5 1011.3 0.0
20/07:30pm 27.5 30.4 20.6 66 4.5 NNE 6 9 3 5 1011.1 1010.9 0.0
20/07:00pm 27.9 30.6 20.7 65 4.8 NNE 7 13 4 7 1010.6 1010.4 0.0
20/06:30pm 28.4 31.0 21.2 65 4.8 NNE 9 17 5 9 1010.3 1010.1 0.0
20/06:00pm 28.9 29.7 20.6 61 5.5 NNE 17 24 9 13 1009.9 1009.7 0.0
20/05:30pm 29.3 30.9 20.7 59 5.7 NNE 13 20 7 11 1009.3 1009.1 0.0
20/05:00pm 30.1 30.6 20.9 57 6.1 NNE 19 28 10 15 1008.9 1008.7 0.0
20/04:30pm 29.8 31.0 20.6 57 6.1 NE 15 26 8 14 1008.5 1008.3 0.0
20/04:00pm 29.8 31.1 20.9 59 5.9 NNE 15 26 8 14 1008.3 1008.1 0.0
20/03:30pm 30.3 31.3 21.1 58 6.2 NNE 17 32 9 17 1008.3 1008.1 0.0
20/03:00pm 30.6 31.2 20.2 53 6.9 NNE 17 28 9 15 1008.2 1008.0 0.0
20/02:30pm 30.8 31.4 19.5 51 7.4 NNE 15 24 8 13 1008.4 1008.2 0.0
20/02:00pm 31.5 32.1 19.5 49 7.9 NE 15 24 8 13 1008.5 1008.3 0.0
20/01:30pm 32.1 32.3 19.4 47 8.3 N 17 28 9 15 1008.7 1008.5 0.0
20/01:00pm 32.0 33.4 19.6 47 8.2 NNE 11 24 6 13 1009.1 1008.9 0.0
20/12:30pm 31.0 31.3 19.7 51 7.4 NE 17 24 9 13 1009.4 1009.2 0.0
20/12:00pm 32.3 34.3 19.9 48 8.2 ENE 9 15 5 8 1009.8 1009.6 0.0
20/11:30am 30.6 32.6 19.9 52 7.0 ENE 9 15 5 8 1010.3 1010.1 0.0
20/11:00am 31.1 32.2 20.4 53 7.1 ENE 15 26 8 14 1010.5 1010.3 0.0
20/10:30am 31.6 34.2 19.2 47 8.1 SSE 4 11 2 6 1010.3 1010.1 0.0
20/10:00am 30.2 32.5 19.9 54 6.8 SSE 7 13 4 7 1010.5 1010.3 0.0
20/09:30am 30.0 32.6 20.5 56 6.3 WSW 7 13 4 7 1010.6 1010.4 0.0
20/09:00am 30.1 32.9 20.9 57 6.1 W 7 13 4 7 1010.7 1010.5 0.2
20/08:30am 29.0 32.5 20.4 59 5.7 WNW 2 7 1 4 1010.6 1010.4 0.2
20/08:00am 28.0 31.0 20.8 65 4.8 SSW 6 11 3 6 1010.5 1010.3 0.2
20/07:30am 26.6 29.7 21.1 72 3.6 SSW 6 9 3 5 1010.2 1010.0 0.2
20/07:00am 25.5 29.3 21.6 79 2.6 SE 4 7 2 4 1009.9 1009.7 0.2
20/06:30am 23.8 28.6 22.1 90 1.1 CALM 0 0 0 0 1009.9 1009.7 0.2
20/06:00am 23.6 28.3 21.9 90 1.1 CALM 0 7 0 4 1009.6 1009.4 0.2
20/05:30am 23.8 28.1 21.9 89 1.3 S 2 6 1 3 1009.6 1009.4 0.2
20/05:00am 24.0 28.3 21.9 88 1.4 S 2 7 1 4 1009.4 1009.2 0.2
20/04:30am 23.9 27.2 21.8 88 1.4 SSW 7 9 4 5 1009.2 1009.0 0.2
20/04:00am 25.3 26.9 19.9 72 3.5 S 11 17 6 9 1008.9 1008.7 0.0
20/03:30am 25.7 27.5 19.6 69 3.9 S 9 15 5 8 1008.8 1008.6 0.0
20/03:00am 25.4 27.7 19.8 71 3.6 SW 7 11 4 6 1008.5 1008.3 0.0
20/02:30am 25.8 28.2 19.7 69 3.9 SSW 6 6 3 3 1008.5 1008.3 0.0
20/02:00am 25.6 28.8 19.7 70 3.8 N 2 6 1 3 1008.5 1008.3 0.0
20/01:30am 25.4 29.3 20.4 74 3.3 CALM 0 0 0 0 1008.7 1008.5 0.0
20/01:00am 25.5 29.4 20.3 73 3.4 CALM 0 0 0 0 1009.0 1008.8 0.0
20/12:30am 25.3 28.4 20.3 74 3.3 E 4 6 2 3 1009.3 1009.1 0.0
20/12:00am 25.3 29.2 20.3 74 3.3 CALM 0 0 0 0 1009.4 1009.2 0.0
 
Date/Time
EST
Temp
°C
App
Temp
°C
Dew
Point
°C
Rel
Hum
%
Delta-T
°C
Wind Press
QNH
hPa
Press
MSL
hPa
Rain since
9am
mm
Dir  Spd
km/h
Gust
km/h
Spd
kts
Gust
kts
19/11:30pm 25.3 29.1 20.1 73 3.4 CALM 0 0 0 0 1009.5 1009.3 0.0
19/11:00pm 26.0 29.8 20.1 70 3.8 CALM 0 0 0 0 1009.7 1009.5 0.0
19/10:30pm 26.4 30.1 20.0 68 4.2 CALM 0 0 0 0 1009.9 1009.7 0.0
19/10:00pm 26.9 30.6 20.0 66 4.5 CALM 0 0 0 0 1009.9 1009.7 0.0
19/09:30pm 26.9 30.2 20.0 66 4.5 NW 2 6 1 3 1010.0 1009.8 0.0
19/09:00pm 27.1 30.4 20.0 65 4.6 NW 2 7 1 4 1009.7 1009.5 0.0
19/08:30pm 27.4 30.4 20.0 64 4.8 NW 4 7 2 4 1009.6 1009.4 0.0
19/08:00pm 27.4 29.8 19.7 63 5.0 WNW 6 9 3 5 1009.1 1008.9 0.0
19/07:30pm 27.6 31.2 19.7 62 5.1 CALM 0 6 0 3 1008.3 1008.1 0.0
19/07:00pm 27.7 29.5 19.5 61 5.3 NNE 9 13 5 7 1008.0 1007.8 0.0
19/06:30pm 27.9 29.8 18.9 58 5.8 N 7 11 4 6 1007.9 1007.7 0.0
19/06:00pm 28.3 29.7 19.5 59 5.7 N 11 17 6 9 1007.5 1007.3 0.0
19/05:30pm 28.5 30.1 20.0 60 5.6 N 11 15 6 8 1007.0 1006.8 0.0
19/05:00pm 28.3 29.7 19.5 59 5.7 NNW 11 17 6 9 1007.0 1006.8 0.0
19/04:30pm 28.2 28.8 19.4 59 5.7 N 15 26 8 14 1006.7 1006.5 0.0
19/04:00pm 28.3 28.7 19.8 60 5.6 N 17 26 9 14 1006.9 1006.7 0.0
19/03:30pm 29.2 29.7 19.2 54 6.5 NNE 15 24 8 13 1007.0 1006.8 0.0
19/03:00pm 30.7 30.4 19.1 50 7.6 NE 19 28 10 15 1006.5 1006.3 0.0
19/02:30pm 31.0 31.0 19.0 48 7.8 NNE 17 26 9 14 1007.1 1006.9 0.0
19/02:00pm 31.6 31.6 18.9 47 8.3 NE 17 28 9 15 1007.4 1007.2 0.0
19/01:30pm 30.7 30.6 18.8 49 7.7 NE 17 26 9 14 1007.9 1007.7 0.0
19/01:00pm 30.8 30.4 18.8 48 7.8 NE 19 30 10 16 1008.0 1007.8 0.0
19/12:30pm 31.3 31.3 19.0 48 8.0 NNE 17 24 9 13 1008.6 1008.4 0.0
19/12:00pm 31.1 30.9 18.5 47 8.2 NE 17 28 9 15 1008.9 1008.7 0.0
19/11:30am 31.1 31.5 18.1 46 8.4 NNE 13 22 7 12 1009.2 1009.0 0.0
19/11:00am 31.2 31.7 19.2 48 7.8 NE 15 28 8 15 1009.4 1009.2 0.0
19/10:30am 30.8 30.9 19.2 50 7.6 NE 17 30 9 16 1009.7 1009.5 0.0
19/10:00am 30.3 30.3 19.0 50 7.3 NNE 17 24 9 13 1009.8 1009.6 0.0
19/09:30am 29.8 29.9 18.3 50 7.4 NE 15 26 8 14 1009.9 1009.7 0.0

Other Formats:

Comma delimited format used in spreadsheet applications
http://www.bom.gov.au/fwo/IDQ60801/IDQ60801.95370.axf

JavaScript Object Notation format (JSON) in row-major order
http://www.bom.gov.au/fwo/IDQ60801/IDQ60801.95370.json